ADDS METAR Data INFO
IDs: Format: Raw Decoded Include TAF

Data at: 1436 UTC 20 Sep 2017

KSSF 201408Z 15008KT 10SM OVC016 28/24 A2992 RMK AO2 T02780239
KSSF 201353Z 15008KT 10SM BKN014 OVC019 27/24 A2992 RMK AO2 SLP118 T02720239
KSSF 201328Z 14005KT 10SM BKN014 27/24 A2991 RMK AO2 T02670239
KSSF 201253Z 16005KT 10SM OVC020 27/24 A2990 RMK AO2 SLP111 T02670239
KSSF 201224Z 16005KT 10SM SCT013 OVC020 26/24 A2990 RMK AO2 T02610239
KSSF 201153Z 16007KT 10SM BKN012 OVC017 26/24 A2989 RMK AO2 SLP109 T02610244 10267 20256 53013
KSSF 201053Z AUTO 16005KT 10SM OVC013 26/24 A2987 RMK AO2 SLP101 T02610244
KSSF 200953Z AUTO 17005KT 10SM OVC010 26/24 A2986 RMK AO2 CIG 008V013 SLP098 T02610244
KSSF 200853Z AUTO 15005KT 10SM OVC010 26/24 A2985 RMK AO2 SLP095 T02560239 58007
KSSF 200753Z AUTO 14005KT 10SM BKN013 26/24 A2986 RMK AO2 SLP098 T02610239
KSSF 200653Z AUTO 13004KT 10SM CLR 26/23 A2988 RMK AO2 SLP102 T02610233
KSSF 200553Z AUTO 13006KT 10SM CLR 27/23 A2987 RMK AO2 SLP103 60000 T02670233 10333 20267 403720261 51015
KSSF 200453Z AUTO 14006KT 10SM BKN060 28/23 A2987 RMK AO2 SLP103 T02780233
KSSF 200353Z AUTO 15008KT 10SM CLR 28/23 A2986 RMK AO2 SLP099 T02830233
KSSF 200253Z 14010KT 10SM CLR 29/23 A2983 RMK AO2 SLP088 60000 T02940228 53007
KSSF 200153Z 15014G19KT 10SM CLR 31/23 A2982 RMK AO2 RAB06E19 SLP086 P0000 T03060228
KSSF 200053Z 13012KT 10SM CLR 32/22 A2980 RMK AO2 SLP078 T03170222
KSSF 192353Z 11008KT 10SM CLR 33/22 A2981 RMK AO2 SLP081 T03330217 10372 20322 55002
KSSF 192253Z 13006KT 10SM CLR 34/21 A2979 RMK AO2 SLP074 T03440206
KSSF 192153Z 15009KT 10SM FEW075 36/21 A2980 RMK AO2 SLP076 T03560206
KSSF 192053Z 14008G15KT 10SM FEW060 36/21 A2982 RMK AO2 SLP083 T03560206 58031
KSSF 191953Z 14007KT 10SM BKN055 BKN070 36/21 A2985 RMK AO2 SLP094 T03560211
KSSF 191853Z 14011KT 10SM SCT046 BKN055 34/21 A2989 RMK AO2 SLP105 T03440211
KSSF 191753Z VRB05G17KT 10SM SCT040 BKN049 33/22 A2991 RMK AO2 SLP115 T03330217 10339 20261 58015
KSSF 191653Z VRB05KT 10SM SCT036 31/22 A2994 RMK AO2 SLP125 T03110222
KSSF 191553Z 18006KT 10SM FEW023 FEW030 BKN036 31/23 A2995 RMK AO2 SLP130 T03060233
KSSF 191539Z 18008KT 10SM FEW023 SCT029 SCT034 29/23 A2996 RMK AO2 T02940228
KSSF 191453Z 17010KT 10SM FEW013 BKN019 OVC026 29/23 A2996 RMK AO2 SLP130 T02940233 53009
KSSF 191359Z 14007KT 7SM SCT009 SCT013 BKN024 28/24 A2995 RMK AO2 T02780244
KSSF 191353Z 14008KT 6SM HZ SCT010 BKN014 OVC025 27/24 A2995 RMK AO2 SLP128 T02720244
KSSF 191303Z 12005KT 5SM BR BKN012 OVC018 26/24 A2993 RMK AO2 T02610244
KSSF 191253Z 12005KT 5SM BR FEW008 OVC015 26/24 A2993 RMK AO2 SLP122 T02610244
KSSF 191245Z 11005KT 5SM BR BKN015 OVC021 26/24 A2993 RMK AO2 T02610244
KSSF 191202Z 10003KT 7SM BKN012 OVC017 26/24 A2992 RMK AO2 T02610244
KSSF 191153Z 11004KT 7SM OVC015 26/24 A2992 RMK AO2 SLP118 T02610244 10267 20261 53003
KSSF 191129Z AUTO 13003KT 7SM OVC015 26/24 A2992 RMK AO2 T02610244
KSSF 191053Z AUTO 00000KT 7SM BKN013 26/24 A2991 RMK AO2 SLP115 T02610244
KSSF 190953Z AUTO 16004KT 8SM OVC014 27/24 A2991 RMK AO2 SLP113 T02670244
KSSF 190936Z AUTO 16004KT 8SM BKN014 27/24 A2991 RMK AO2 T02670244
KSSF 190912Z AUTO 16005KT 9SM BKN016 27/24 A2991 RMK AO2 T02670244
KSSF 190853Z AUTO 17007KT 9SM SCT017 27/24 A2991 RMK AO2 SLP114 T02670244 58002
KSSF 190753Z AUTO 15004KT 10SM OVC015 27/24 A2992 RMK AO2 SLP117 T02670244
KSSF 190728Z AUTO 14005KT 10SM OVC016 27/24 A2992 RMK AO2 T02670244
KSSF 190702Z AUTO 14005KT 10SM OVC014 27/24 A2992 RMK AO2 T02670244
KSSF 190653Z AUTO 14005KT 10SM OVC015 27/24 A2992 RMK AO2 SLP116 T02670244
KSSF 190615Z AUTO 14006KT 10SM OVC015 27/24 A2992 RMK AO2 T02670244
KSSF 190553Z AUTO 14007KT 10SM BKN014 27/24 A2992 RMK AO2 SLP117 T02670239 10328 20267 403670250 50002
KSSF 190530Z AUTO 13006KT 10SM BKN015 27/24 A2992 RMK AO2 T02720239
KSSF 190453Z AUTO 13006KT 10SM CLR 27/23 A2992 RMK AO2 SLP118 T02720233
KSSF 190353Z AUTO 14009KT 10SM CLR 28/23 A2992 RMK AO2 SLP118 T02830233
KSSF 190253Z 13010KT 10SM CLR 29/24 A2991 RMK AO2 SLP116 T02890239 53012